Littlesburg, West Virginia
Current Conditions -  °F | °C
As of 6:52 AM on Wednesday 28 Jan 2015 (Local Time) from KBLF Reporting Station
Overcast Overcast  
Wind Chill:   Ceiling: 800
Heat Index: 18°   Visibility: 9mi
Dew Point: 12°   Wind: 9mph
Humidity: 78%   Direction: 290°WNW
Pressure: 30.15"   Gusts: NA
Location:  37.2994°N, 81.226°W
Report Text: KBLF 281152Z AUTO 29008KT 9SM OVC008 M08/M11 A3015 RMK AO2 SLP242 60000 T10781111 11078 21078 53022
Loading
Personal Weather Stations






























Interactive Weather Map New forecast layout! Learn more

10-Day Weather Forecast

Advertisements
Track Severe Weather on mobile